createdAt,value
2018-05-02T00:00:07.847Z,9.83333333333
2018-05-02T00:00:20.285Z,9.83333333333
2018-05-02T00:00:32.747Z,9.88888888889
2018-05-02T00:00:45.185Z,9.83333333333
2018-05-02T00:00:57.613Z,9.88888888889
2018-05-02T00:01:10.054Z,9.83333333333
2018-05-02T00:01:22.473Z,9.83333333333
2018-05-02T00:01:34.886Z,9.83333333333
2018-05-02T00:01:47.298Z,9.83333333333
2018-05-02T00:01:59.694Z,9.77777777778
2018-05-02T00:02:12.096Z,9.83333333333
2018-05-02T00:02:24.516Z,9.83333333333
2018-05-02T00:02:36.909Z,9.83333333333
2018-05-02T00:02:49.323Z,9.77777777778
2018-05-02T00:03:01.876Z,9.83333333333
2018-05-02T00:03:14.272Z,9.77777777778
2018-05-02T00:03:26.677Z,9.77777777778
2018-05-02T00:03:39.086Z,9.77777777778
2018-05-02T00:03:51.478Z,9.77777777778
2018-05-02T00:04:03.894Z,9.77777777778
2018-05-02T00:04:16.306Z,9.72222222222
2018-05-02T00:04:28.707Z,9.77777777778
2018-05-02T00:04:41.125Z,9.77777777778
2018-05-02T00:04:53.545Z,9.72222222222
2018-05-02T00:05:05.959Z,9.72222222222
2018-05-02T00:05:18.349Z,9.72222222222
2018-05-02T00:05:30.761Z,9.72222222222
2018-05-02T00:05:43.206Z,9.72222222222
2018-05-02T00:05:55.612Z,9.72222222222
2018-05-02T00:06:08.018Z,9.66666666667
2018-05-02T00:06:20.439Z,9.66666666667
2018-05-02T00:06:32.904Z,9.66666666667
2018-05-02T00:06:45.323Z,9.66666666667
2018-05-02T00:06:57.782Z,9.66666666667
2018-05-02T00:07:10.197Z,9.61111111111
2018-05-02T00:07:22.642Z,9.61111111111
2018-05-02T00:07:35.042Z,9.61111111111
2018-05-02T00:07:47.444Z,9.61111111111
2018-05-02T00:07:59.836Z,9.61111111111
2018-05-02T00:08:12.239Z,9.55555555556
2018-05-02T00:08:24.651Z,9.55555555556
2018-05-02T00:08:37.064Z,9.55555555556
2018-05-02T00:08:49.463Z,9.55555555556
2018-05-02T00:09:01.868Z,9.55555555556
2018-05-02T00:09:14.281Z,9.55555555556
2018-05-02T00:09:26.709Z,9.55555555556
2018-05-02T00:09:39.198Z,9.5
2018-05-02T00:09:51.615Z,9.5
2018-05-02T00:10:04.255Z,9.5
2018-05-02T00:10:16.667Z,9.5
2018-05-02T00:10:29.148Z,9.44444444444
2018-05-02T00:10:41.567Z,9.44444444444
2018-05-02T00:10:54.047Z,9.44444444444
2018-05-02T00:11:06.483Z,9.44444444444
2018-05-02T00:11:18.932Z,9.44444444444
2018-05-02T00:11:31.345Z,9.44444444444
2018-05-02T00:11:43.746Z,9.44444444444
2018-05-02T00:11:56.158Z,9.44444444444
2018-05-02T00:12:08.570Z,9.44444444444
2018-05-02T00:12:20.976Z,9.38888888889
2018-05-02T00:12:33.408Z,9.38888888889
2018-05-02T00:12:45.833Z,9.38888888889
2018-05-02T00:12:58.346Z,9.38888888889
2018-05-02T00:13:10.748Z,9.38888888889
2018-05-02T00:13:23.173Z,9.33333333333
2018-05-02T00:13:35.585Z,9.33333333333
2018-05-02T00:13:48.008Z,9.33333333333
2018-05-02T00:14:00.417Z,9.33333333333
2018-05-02T00:14:12.836Z,9.27777777778
2018-05-02T00:14:25.245Z,9.27777777778
2018-05-02T00:14:37.680Z,9.27777777778
2018-05-02T00:14:50.123Z,9.27777777778
2018-05-02T00:15:02.532Z,9.27777777778
2018-05-02T00:15:15.000Z,9.27777777778
2018-05-02T00:15:27.409Z,9.27777777778
2018-05-02T00:15:39.808Z,9.27777777778
2018-05-02T00:15:52.233Z,9.27777777778
2018-05-02T00:16:04.664Z,9.22222222222
2018-05-02T00:16:17.070Z,9.22222222222
2018-05-02T00:16:29.480Z,9.22222222222
2018-05-02T00:16:41.889Z,9.22222222222
2018-05-02T00:16:54.327Z,9.22222222222
2018-05-02T00:17:06.973Z,9.16666666667
2018-05-02T00:17:19.384Z,9.16666666667
2018-05-02T00:17:31.800Z,9.16666666667
2018-05-02T00:17:44.218Z,9.16666666667
2018-05-02T00:17:56.720Z,9.16666666667
2018-05-02T00:18:10.043Z,9.16666666667
2018-05-02T00:18:22.841Z,9.11111111111
2018-05-02T00:18:35.261Z,9.11111111111
2018-05-02T00:18:47.846Z,9.11111111111
2018-05-02T00:19:00.237Z,9.11111111111
2018-05-02T00:19:12.658Z,9.11111111111
2018-05-02T00:19:25.060Z,9.11111111111
2018-05-02T00:19:37.495Z,9.05555555556
2018-05-02T00:19:49.895Z,9.05555555556
2018-05-02T00:20:02.297Z,9.05555555556
2018-05-02T00:20:14.698Z,9.05555555556
2018-05-02T00:20:27.094Z,9.05555555556
2018-05-02T00:20:39.510Z,9
2018-05-02T00:20:51.917Z,9
2018-05-02T00:21:04.328Z,9
2018-05-02T00:21:16.754Z,9
2018-05-02T00:21:29.157Z,9
2018-05-02T00:21:41.562Z,9
2018-05-02T00:21:53.969Z,9
2018-05-02T00:22:06.387Z,8.94444444444
2018-05-02T00:22:18.783Z,8.94444444444
2018-05-02T00:22:31.200Z,8.94444444444
2018-05-02T00:22:43.597Z,8.94444444444
2018-05-02T00:22:56.008Z,8.94444444444
2018-05-02T00:23:08.422Z,8.88888888889
2018-05-02T00:23:20.842Z,8.94444444444
2018-05-02T00:23:33.236Z,8.88888888889
2018-05-02T00:23:45.687Z,8.88888888889
2018-05-02T00:23:58.111Z,8.88888888889
2018-05-02T00:24:10.518Z,8.88888888889
2018-05-02T00:24:22.930Z,8.88888888889
2018-05-02T00:24:35.478Z,8.83333333333
2018-05-02T00:24:47.908Z,8.83333333333
2018-05-02T00:25:00.321Z,8.83333333333
2018-05-02T00:25:12.725Z,8.83333333333
2018-05-02T00:25:25.127Z,8.83333333333
2018-05-02T00:25:37.529Z,8.83333333333
2018-05-02T00:25:49.939Z,8.83333333333
2018-05-02T00:26:02.401Z,8.83333333333
2018-05-02T00:26:14.826Z,8.83333333333
2018-05-02T00:26:27.224Z,8.83333333333
2018-05-02T00:26:39.632Z,8.83333333333
2018-05-02T00:26:52.042Z,8.77777777778
2018-05-02T00:27:04.467Z,8.83333333333
2018-05-02T00:27:16.899Z,8.77777777778
2018-05-02T00:27:29.301Z,8.77777777778
2018-05-02T00:27:41.700Z,8.77777777778
2018-05-02T00:27:54.098Z,8.77777777778
2018-05-02T00:28:06.512Z,8.77777777778
2018-05-02T00:28:19.060Z,8.77777777778
2018-05-02T00:28:31.707Z,8.77777777778
2018-05-02T00:28:44.973Z,8.72222222222
2018-05-02T00:28:57.399Z,8.72222222222
2018-05-02T00:29:09.793Z,8.72222222222
2018-05-02T00:29:22.197Z,8.72222222222
2018-05-02T00:29:34.601Z,8.72222222222
2018-05-02T00:29:47.073Z,8.72222222222
2018-05-02T00:29:59.468Z,8.72222222222
2018-05-02T00:30:11.879Z,8.66666666667
2018-05-02T00:30:24.293Z,8.66666666667
2018-05-02T00:30:36.693Z,8.72222222222
2018-05-02T00:30:49.106Z,8.66666666667
2018-05-02T00:31:01.527Z,8.66666666667
2018-05-02T00:31:13.935Z,8.66666666667
2018-05-02T00:31:26.343Z,8.66666666667
2018-05-02T00:31:38.935Z,8.66666666667
2018-05-02T00:31:51.353Z,8.66666666667
2018-05-02T00:32:03.764Z,8.66666666667
2018-05-02T00:32:16.168Z,8.66666666667
2018-05-02T00:32:28.581Z,8.61111111111
2018-05-02T00:32:40.993Z,8.61111111111
2018-05-02T00:32:53.403Z,8.61111111111
2018-05-02T00:33:05.812Z,8.66666666667
2018-05-02T00:33:18.218Z,8.61111111111
2018-05-02T00:33:30.631Z,8.61111111111
2018-05-02T00:33:43.043Z,8.55555555556
2018-05-02T00:33:55.566Z,8.55555555556
2018-05-02T00:34:08.581Z,8.55555555556
2018-05-02T00:34:21.195Z,8.55555555556
2018-05-02T00:34:33.646Z,8.55555555556
2018-05-02T00:34:46.052Z,8.55555555556
2018-05-02T00:34:58.465Z,8.5
2018-05-02T00:35:10.890Z,8.5
2018-05-02T00:35:23.290Z,8.5
2018-05-02T00:35:35.701Z,8.5
2018-05-02T00:35:48.120Z,8.5
2018-05-02T00:36:00.525Z,8.5
2018-05-02T00:36:12.939Z,8.44444444444
2018-05-02T00:36:25.353Z,8.44444444444
2018-05-02T00:36:37.799Z,8.5
2018-05-02T00:36:50.200Z,8.44444444444
2018-05-02T00:37:02.615Z,8.44444444444
2018-05-02T00:37:15.023Z,8.44444444444
2018-05-02T00:37:27.419Z,8.44444444444
2018-05-02T00:37:39.869Z,8.44444444444
2018-05-02T00:37:52.298Z,8.38888888889
2018-05-02T00:38:04.726Z,8.44444444444
2018-05-02T00:38:17.154Z,8.38888888889
2018-05-02T00:38:29.574Z,8.38888888889
2018-05-02T00:38:41.985Z,8.38888888889
2018-05-02T00:38:54.560Z,8.38888888889
2018-05-02T00:39:06.985Z,8.38888888889
2018-05-02T00:39:19.396Z,8.33333333333
2018-05-02T00:39:31.818Z,8.38888888889
2018-05-02T00:39:44.228Z,8.33333333333
2018-05-02T00:39:56.648Z,8.33333333333
2018-05-02T00:40:09.070Z,8.33333333333
2018-05-02T00:40:21.487Z,8.33333333333
2018-05-02T00:40:33.914Z,8.33333333333
2018-05-02T00:40:46.318Z,8.33333333333
2018-05-02T00:40:58.739Z,8.33333333333
2018-05-02T00:41:11.162Z,8.33333333333
2018-05-02T00:41:23.577Z,8.27777777778
2018-05-02T00:41:35.989Z,8.33333333333
2018-05-02T00:41:48.386Z,8.27777777778
2018-05-02T00:42:00.783Z,8.27777777778
2018-05-02T00:42:13.190Z,8.27777777778
2018-05-02T00:42:25.587Z,8.27777777778
2018-05-02T00:42:37.998Z,8.27777777778
2018-05-02T00:42:50.403Z,8.27777777778
2018-05-02T00:43:02.809Z,8.27777777778
2018-05-02T00:43:15.219Z,8.22222222222
2018-05-02T00:43:27.637Z,8.27777777778
2018-05-02T00:43:40.046Z,8.27777777778
2018-05-02T00:43:52.479Z,8.27777777778
2018-05-02T00:44:04.893Z,8.22222222222
2018-05-02T00:44:17.390Z,8.27777777778
2018-05-02T00:44:29.815Z,8.22222222222
2018-05-02T00:44:42.232Z,8.22222222222
2018-05-02T00:44:54.714Z,8.22222222222
2018-05-02T00:45:07.233Z,8.22222222222
2018-05-02T00:45:19.629Z,8.22222222222
2018-05-02T00:45:32.045Z,8.22222222222
2018-05-02T00:45:44.449Z,8.22222222222
2018-05-02T00:45:56.927Z,8.22222222222
2018-05-02T00:46:09.342Z,8.22222222222
2018-05-02T00:46:21.752Z,8.22222222222
2018-05-02T00:46:34.152Z,8.22222222222
2018-05-02T00:46:46.563Z,8.22222222222
2018-05-02T00:46:58.959Z,8.16666666667
2018-05-02T00:47:11.364Z,8.16666666667
2018-05-02T00:47:23.780Z,8.16666666667
2018-05-02T00:47:36.177Z,8.16666666667
2018-05-02T00:47:48.573Z,8.16666666667
2018-05-02T00:48:00.988Z,8.16666666667
2018-05-02T00:48:13.610Z,8.16666666667
2018-05-02T00:48:26.037Z,8.16666666667
2018-05-02T00:48:38.432Z,8.16666666667
2018-05-02T00:48:50.852Z,8.16666666667
2018-05-02T00:49:03.398Z,8.16666666667
2018-05-02T00:49:15.825Z,8.11111111111
2018-05-02T00:49:28.243Z,8.16666666667
2018-05-02T00:49:40.662Z,8.16666666667
2018-05-02T00:49:53.083Z,8.11111111111
2018-05-02T00:50:05.502Z,8.11111111111
2018-05-02T00:50:17.907Z,8.11111111111
2018-05-02T00:50:30.331Z,8.05555555556
2018-05-02T00:50:42.731Z,8.11111111111
2018-05-02T00:50:55.160Z,8.11111111111
2018-05-02T00:51:07.860Z,8.11111111111
2018-05-02T00:51:20.281Z,8.05555555556
2018-05-02T00:51:32.690Z,8.05555555556
2018-05-02T00:51:45.115Z,8.05555555556
2018-05-02T00:51:57.516Z,8.05555555556
2018-05-02T00:52:09.922Z,8.05555555556
2018-05-02T00:52:22.393Z,8.05555555556
2018-05-02T00:52:34.806Z,8.05555555556
2018-05-02T00:52:47.232Z,8.05555555556
2018-05-02T00:52:59.645Z,8.05555555556
2018-05-02T00:53:12.106Z,8
2018-05-02T00:53:24.516Z,8
2018-05-02T00:53:36.935Z,8
2018-05-02T00:53:49.355Z,8
2018-05-02T00:54:01.769Z,8
2018-05-02T00:54:14.264Z,8
2018-05-02T00:54:26.736Z,8
2018-05-02T00:54:39.212Z,8
2018-05-02T00:54:51.660Z,8
2018-05-02T00:55:04.073Z,7.94444444444
2018-05-02T00:55:16.483Z,7.94444444444
2018-05-02T00:55:28.880Z,7.94444444444
2018-05-02T00:55:41.292Z,7.94444444444
2018-05-02T00:55:53.716Z,7.94444444444
2018-05-02T00:56:06.196Z,7.94444444444
2018-05-02T00:56:18.599Z,7.94444444444
2018-05-02T00:56:31.092Z,7.94444444444
2018-05-02T00:56:43.513Z,7.94444444444
2018-05-02T00:56:55.917Z,7.94444444444
2018-05-02T00:57:08.319Z,7.94444444444
2018-05-02T00:57:20.729Z,7.88888888889
2018-05-02T00:57:33.184Z,7.88888888889
2018-05-02T00:57:45.667Z,7.88888888889
2018-05-02T00:57:58.072Z,7.88888888889
2018-05-02T00:58:10.579Z,7.88888888889
2018-05-02T00:58:23.004Z,7.88888888889
2018-05-02T00:58:35.409Z,7.83333333333
2018-05-02T00:58:47.824Z,7.83333333333
2018-05-02T00:59:00.302Z,7.88888888889
2018-05-02T00:59:12.712Z,7.83333333333
2018-05-02T00:59:25.131Z,7.88888888889
2018-05-02T00:59:37.621Z,7.83333333333
2018-05-02T00:59:50.053Z,7.83333333333
2018-05-02T01:00:02.453Z,7.83333333333
2018-05-02T01:00:14.932Z,7.83333333333
2018-05-02T01:00:27.359Z,7.83333333333
2018-05-02T01:00:39.876Z,7.83333333333
2018-05-02T01:00:52.328Z,7.83333333333
2018-05-02T01:01:04.770Z,7.83333333333
2018-05-02T01:01:17.179Z,7.83333333333
2018-05-02T01:01:29.609Z,7.83333333333
2018-05-02T01:01:42.021Z,7.77777777778
2018-05-02T01:01:54.435Z,7.77777777778
2018-05-02T01:02:06.858Z,7.77777777778
2018-05-02T01:02:19.265Z,7.83333333333
2018-05-02T01:02:31.666Z,7.77777777778
2018-05-02T01:02:44.081Z,7.77777777778
2018-05-02T01:02:56.506Z,7.83333333333
2018-05-02T01:03:08.912Z,7.83333333333
2018-05-02T01:03:21.313Z,7.83333333333
2018-05-02T01:03:33.719Z,7.77777777778
2018-05-02T01:03:46.119Z,7.77777777778
2018-05-02T01:03:58.514Z,7.77777777778
2018-05-02T01:04:10.953Z,7.83333333333
2018-05-02T01:04:23.362Z,7.83333333333
2018-05-02T01:04:35.789Z,7.77777777778
2018-05-02T01:04:48.192Z,7.77777777778
2018-05-02T01:05:00.607Z,7.77777777778
2018-05-02T01:05:13.013Z,7.77777777778
2018-05-02T01:05:25.422Z,7.77777777778
2018-05-02T01:05:37.857Z,7.77777777778
2018-05-02T01:05:50.273Z,7.77777777778
2018-05-02T01:06:02.685Z,7.77777777778
2018-05-02T01:06:15.104Z,7.77777777778
2018-05-02T01:06:27.563Z,7.83333333333
2018-05-02T01:06:39.983Z,7.77777777778
2018-05-02T01:06:52.380Z,7.77777777778
2018-05-02T01:07:04.886Z,7.77777777778
2018-05-02T01:07:17.293Z,7.83333333333
2018-05-02T01:07:29.698Z,7.83333333333
2018-05-02T01:07:42.106Z,7.83333333333
2018-05-02T01:07:54.512Z,7.83333333333
2018-05-02T01:08:06.934Z,7.83333333333
2018-05-02T01:08:19.338Z,7.83333333333
2018-05-02T01:08:31.755Z,7.83333333333
2018-05-02T01:08:44.366Z,7.83333333333
2018-05-02T01:08:56.763Z,7.88888888889
2018-05-02T01:09:09.208Z,7.83333333333
2018-05-02T01:09:21.609Z,7.83333333333
2018-05-02T01:09:34.068Z,7.83333333333
2018-05-02T01:09:46.766Z,7.88888888889
2018-05-02T01:09:59.181Z,7.88888888889
2018-05-02T01:10:11.598Z,7.88888888889
2018-05-02T01:10:24.014Z,7.88888888889
2018-05-02T01:10:36.424Z,7.88888888889
2018-05-02T01:10:48.834Z,7.88888888889
2018-05-02T01:11:01.246Z,7.94444444444
2018-05-02T01:11:13.664Z,7.94444444444
2018-05-02T01:11:26.086Z,7.94444444444
2018-05-02T01:11:38.479Z,7.94444444444
2018-05-02T01:11:50.963Z,7.94444444444
2018-05-02T01:12:03.365Z,7.94444444444
2018-05-02T01:12:15.785Z,7.94444444444
2018-05-02T01:12:28.194Z,7.94444444444
2018-05-02T01:12:40.594Z,7.94444444444
2018-05-02T01:12:53.009Z,7.94444444444
2018-05-02T01:13:05.419Z,7.94444444444
2018-05-02T01:13:17.830Z,7.94444444444
2018-05-02T01:13:30.307Z,7.94444444444
2018-05-02T01:13:42.743Z,7.94444444444
2018-05-02T01:13:55.138Z,7.94444444444
2018-05-02T01:14:07.570Z,7.94444444444
2018-05-02T01:14:19.979Z,7.94444444444
2018-05-02T01:14:32.402Z,8
2018-05-02T01:14:44.797Z,8
2018-05-02T01:14:57.305Z,8
2018-05-02T01:15:09.740Z,7.94444444444
2018-05-02T01:15:22.138Z,8
2018-05-02T01:15:34.545Z,7.94444444444
2018-05-02T01:15:46.941Z,8
2018-05-02T01:15:59.353Z,8
2018-05-02T01:16:11.761Z,8
2018-05-02T01:16:24.229Z,8
2018-05-02T01:16:36.640Z,8
2018-05-02T01:16:49.116Z,8
2018-05-02T01:17:01.541Z,8
2018-05-02T01:17:13.955Z,8
2018-05-02T01:17:26.383Z,8
2018-05-02T01:17:38.814Z,8
2018-05-02T01:17:51.215Z,8
2018-05-02T01:18:03.624Z,8
2018-05-02T01:18:16.045Z,8
2018-05-02T01:18:28.588Z,8
2018-05-02T01:18:41.146Z,8
2018-05-02T01:18:53.638Z,8
2018-05-02T01:19:06.040Z,8
2018-05-02T01:19:18.459Z,8
2018-05-02T01:19:30.911Z,8
2018-05-02T01:19:43.326Z,7.94444444444
2018-05-02T01:19:55.816Z,7.94444444444
2018-05-02T01:20:08.230Z,8
2018-05-02T01:20:20.645Z,8
2018-05-02T01:20:33.098Z,8
2018-05-02T01:20:45.492Z,8
2018-05-02T01:20:57.906Z,8
2018-05-02T01:21:10.320Z,8
2018-05-02T01:21:22.727Z,8
2018-05-02T01:21:35.131Z,8
2018-05-02T01:21:47.600Z,7.94444444444
2018-05-02T01:21:59.997Z,8
2018-05-02T01:22:12.415Z,8
2018-05-02T01:22:24.825Z,7.94444444444
2018-05-02T01:22:37.225Z,7.94444444444
2018-05-02T01:22:49.639Z,8
2018-05-02T01:23:02.058Z,7.94444444444
2018-05-02T01:23:14.472Z,8
2018-05-02T01:23:26.864Z,7.94444444444
2018-05-02T01:23:39.262Z,8
2018-05-02T01:23:51.757Z,7.94444444444
2018-05-02T01:24:04.165Z,7.94444444444
2018-05-02T01:24:16.579Z,7.94444444444
2018-05-02T01:24:29.262Z,7.94444444444
2018-05-02T01:24:41.671Z,7.94444444444
2018-05-02T01:24:54.094Z,7.94444444444
2018-05-02T01:25:06.555Z,7.94444444444
2018-05-02T01:25:18.965Z,7.94444444444
2018-05-02T01:25:31.375Z,7.94444444444
2018-05-02T01:25:43.790Z,7.94444444444
2018-05-02T01:25:56.225Z,7.94444444444
2018-05-02T01:26:08.634Z,7.94444444444
2018-05-02T01:26:21.060Z,7.94444444444
2018-05-02T01:26:33.484Z,7.94444444444
2018-05-02T01:26:45.890Z,7.94444444444
2018-05-02T01:26:58.299Z,7.94444444444
2018-05-02T01:27:10.717Z,7.94444444444
2018-05-02T01:27:23.137Z,7.94444444444
2018-05-02T01:27:35.540Z,7.94444444444
2018-05-02T01:27:47.955Z,7.94444444444
2018-05-02T01:28:00.357Z,7.94444444444
2018-05-02T01:28:12.908Z,7.88888888889
2018-05-02T01:28:25.318Z,7.94444444444
2018-05-02T01:28:37.727Z,7.94444444444
2018-05-02T01:28:50.147Z,7.88888888889
2018-05-02T01:29:02.555Z,7.94444444444
2018-05-02T01:29:15.008Z,7.94444444444
2018-05-02T01:29:27.411Z,7.94444444444
2018-05-02T01:29:39.805Z,7.94444444444
2018-05-02T01:29:52.202Z,7.88888888889
2018-05-02T01:30:04.620Z,7.94444444444
2018-05-02T01:30:17.045Z,7.88888888889
2018-05-02T01:30:29.456Z,7.88888888889
2018-05-02T01:30:41.873Z,7.94444444444
2018-05-02T01:30:54.278Z,7.88888888889
2018-05-02T01:31:06.712Z,7.88888888889
2018-05-02T01:31:19.153Z,7.88888888889
2018-05-02T01:31:31.628Z,7.88888888889
2018-05-02T01:31:44.243Z,7.94444444444
2018-05-02T01:31:56.659Z,7.88888888889
2018-05-02T01:32:09.088Z,7.88888888889
2018-05-02T01:32:21.495Z,7.88888888889
2018-05-02T01:32:33.923Z,7.88888888889
2018-05-02T01:32:46.342Z,7.88888888889
2018-05-02T01:32:58.750Z,7.88888888889
2018-05-02T01:33:11.160Z,7.88888888889
2018-05-02T01:33:23.590Z,7.88888888889
2018-05-02T01:33:35.993Z,7.88888888889
2018-05-02T01:33:48.405Z,7.88888888889
2018-05-02T01:34:00.810Z,7.88888888889
2018-05-02T01:34:13.225Z,7.88888888889
2018-05-02T01:34:25.640Z,7.88888888889
2018-05-02T01:34:38.053Z,7.88888888889
2018-05-02T01:34:50.476Z,7.88888888889
2018-05-02T01:35:02.897Z,7.88888888889
2018-05-02T01:35:15.333Z,7.88888888889
2018-05-02T01:35:27.749Z,7.83333333333
2018-05-02T01:35:40.167Z,7.88888888889
2018-05-02T01:35:52.745Z,7.88888888889
2018-05-02T01:36:05.190Z,7.83333333333
2018-05-02T01:36:17.605Z,7.83333333333
2018-05-02T01:36:30.025Z,7.83333333333
2018-05-02T01:36:42.431Z,7.83333333333
2018-05-02T01:36:54.838Z,7.88888888889
2018-05-02T01:37:07.250Z,7.83333333333
2018-05-02T01:37:19.649Z,7.83333333333
2018-05-02T01:37:32.054Z,7.83333333333
2018-05-02T01:37:44.525Z,7.83333333333
2018-05-02T01:37:56.932Z,7.83333333333
2018-05-02T01:38:09.349Z,7.83333333333
2018-05-02T01:38:21.775Z,7.83333333333
2018-05-02T01:38:34.184Z,7.83333333333
2018-05-02T01:38:46.594Z,7.77777777778
2018-05-02T01:38:59.218Z,7.77777777778
2018-05-02T01:39:11.632Z,7.83333333333
2018-05-02T01:39:24.068Z,7.77777777778
2018-05-02T01:39:36.551Z,7.77777777778
2018-05-02T01:39:49.040Z,7.77777777778
2018-05-02T01:40:01.449Z,7.77777777778
2018-05-02T01:40:13.872Z,7.77777777778
2018-05-02T01:40:26.296Z,7.77777777778
2018-05-02T01:40:38.695Z,7.77777777778
2018-05-02T01:40:51.103Z,7.77777777778
2018-05-02T01:41:03.526Z,7.77777777778
2018-05-02T01:41:15.932Z,7.77777777778
2018-05-02T01:41:28.336Z,7.77777777778
2018-05-02T01:41:40.838Z,7.77777777778
2018-05-02T01:41:53.308Z,7.77777777778
2018-05-02T01:42:05.724Z,7.77777777778
2018-05-02T01:42:18.142Z,7.77777777778
2018-05-02T01:42:30.610Z,7.77777777778
2018-05-02T01:42:43.106Z,7.77777777778
2018-05-02T01:42:55.502Z,7.72222222222
2018-05-02T01:43:07.905Z,7.77777777778
2018-05-02T01:43:20.316Z,7.77777777778
2018-05-02T01:43:32.717Z,7.72222222222
2018-05-02T01:43:45.123Z,7.72222222222
2018-05-02T01:43:57.556Z,7.72222222222
2018-05-02T01:44:09.958Z,7.72222222222
2018-05-02T01:44:22.362Z,7.77777777778
2018-05-02T01:44:34.791Z,7.72222222222
2018-05-02T01:44:47.185Z,7.72222222222
2018-05-02T01:44:59.599Z,7.72222222222
2018-05-02T01:45:12.101Z,7.72222222222
2018-05-02T01:45:24.503Z,7.72222222222
2018-05-02T01:45:36.995Z,7.72222222222
2018-05-02T01:45:49.407Z,7.66666666667
2018-05-02T01:46:02.021Z,7.72222222222
2018-05-02T01:46:14.504Z,7.72222222222
2018-05-02T01:46:26.898Z,7.72222222222
2018-05-02T01:46:39.401Z,7.66666666667
2018-05-02T01:46:51.810Z,7.66666666667
2018-05-02T01:47:04.227Z,7.66666666667
2018-05-02T01:47:16.648Z,7.66666666667
2018-05-02T01:47:29.043Z,7.66666666667
2018-05-02T01:47:41.453Z,7.66666666667
2018-05-02T01:47:53.856Z,7.66666666667
2018-05-02T01:48:06.263Z,7.66666666667
2018-05-02T01:48:18.807Z,7.66666666667
2018-05-02T01:48:31.232Z,7.61111111111
2018-05-02T01:48:43.645Z,7.61111111111
2018-05-02T01:48:56.050Z,7.61111111111
2018-05-02T01:49:08.463Z,7.61111111111
2018-05-02T01:49:20.913Z,7.61111111111
2018-05-02T01:49:33.377Z,7.61111111111
2018-05-02T01:49:45.790Z,7.61111111111
2018-05-02T01:49:58.204Z,7.61111111111
2018-05-02T01:50:10.606Z,7.61111111111
2018-05-02T01:50:23.013Z,7.61111111111
2018-05-02T01:50:35.434Z,7.55555555556
2018-05-02T01:50:47.848Z,7.55555555556
2018-05-02T01:51:00.256Z,7.55555555556
2018-05-02T01:51:12.669Z,7.55555555556
2018-05-02T01:51:25.147Z,7.55555555556
2018-05-02T01:51:37.581Z,7.55555555556
2018-05-02T01:51:49.984Z,7.5
2018-05-02T01:52:02.384Z,7.5
2018-05-02T01:52:14.807Z,7.5
2018-05-02T01:52:27.226Z,7.5
2018-05-02T01:52:39.627Z,7.5
2018-05-02T01:52:52.030Z,7.5
2018-05-02T01:53:04.442Z,7.5
2018-05-02T01:53:16.853Z,7.5
2018-05-02T01:53:29.255Z,7.44444444444
2018-05-02T01:53:41.663Z,7.44444444444
2018-05-02T01:53:54.086Z,7.44444444444
2018-05-02T01:54:06.502Z,7.44444444444
2018-05-02T01:54:18.922Z,7.44444444444
2018-05-02T01:54:31.322Z,7.44444444444
2018-05-02T01:54:43.721Z,7.44444444444
2018-05-02T01:54:56.144Z,7.44444444444
2018-05-02T01:55:08.556Z,7.38888888889
2018-05-02T01:55:20.964Z,7.33333333333
2018-05-02T01:55:33.387Z,7.33333333333
2018-05-02T01:55:45.808Z,7.38888888889
2018-05-02T01:55:58.226Z,7.38888888889
2018-05-02T01:56:10.702Z,7.33333333333
2018-05-02T01:56:23.106Z,7.33333333333
2018-05-02T01:56:35.567Z,7.33333333333
2018-05-02T01:56:47.991Z,7.33333333333
2018-05-02T01:57:00.390Z,7.33333333333
2018-05-02T01:57:12.803Z,7.33333333333
2018-05-02T01:57:25.215Z,7.33333333333
2018-05-02T01:57:37.622Z,7.33333333333
2018-05-02T01:57:50.045Z,7.27777777778
2018-05-02T01:58:02.469Z,7.27777777778
2018-05-02T01:58:14.930Z,7.27777777778
2018-05-02T01:58:27.338Z,7.27777777778
2018-05-02T01:58:39.738Z,7.27777777778
2018-05-02T01:58:52.149Z,7.27777777778
2018-05-02T01:59:04.557Z,7.27777777778
2018-05-02T01:59:16.999Z,7.22222222222
2018-05-02T01:59:29.402Z,7.22222222222
2018-05-02T01:59:41.814Z,7.22222222222
2018-05-02T01:59:54.222Z,7.22222222222
2018-05-02T02:00:06.681Z,7.22222222222
2018-05-02T02:00:19.121Z,7.16666666667
2018-05-02T02:00:31.594Z,7.22222222222
2018-05-02T02:00:44.075Z,7.16666666667
2018-05-02T02:00:56.550Z,7.16666666667
2018-05-02T02:01:08.973Z,7.16666666667
2018-05-02T02:01:21.407Z,7.16666666667
2018-05-02T02:01:33.845Z,7.16666666667
2018-05-02T02:01:46.251Z,7.16666666667
2018-05-02T02:01:58.681Z,7.16666666667
2018-05-02T02:02:11.134Z,7.16666666667
2018-05-02T02:02:23.539Z,7.11111111111
2018-05-02T02:02:35.940Z,7.11111111111
2018-05-02T02:02:48.343Z,7.11111111111
2018-05-02T02:03:00.758Z,7.11111111111
2018-05-02T02:03:13.175Z,7.11111111111
2018-05-02T02:03:25.578Z,7.11111111111
2018-05-02T02:03:38.011Z,7.11111111111
2018-05-02T02:03:50.418Z,7.11111111111
2018-05-02T02:04:02.843Z,7.05555555556
2018-05-02T02:04:15.269Z,7.05555555556
2018-05-02T02:04:27.674Z,7.11111111111
2018-05-02T02:04:40.134Z,7.05555555556
2018-05-02T02:04:52.631Z,7.05555555556
2018-05-02T02:05:05.050Z,7.05555555556
2018-05-02T02:05:17.468Z,7.05555555556
2018-05-02T02:05:29.871Z,7.05555555556
2018-05-02T02:05:42.277Z,7.05555555556
2018-05-02T02:05:54.677Z,7
2018-05-02T02:06:07.084Z,7.05555555556
2018-05-02T02:06:19.485Z,7
2018-05-02T02:06:31.942Z,7.05555555556
2018-05-02T02:06:44.361Z,7
2018-05-02T02:06:56.766Z,7
2018-05-02T02:07:09.186Z,7.05555555556
2018-05-02T02:07:21.683Z,7
2018-05-02T02:07:34.082Z,7
2018-05-02T02:07:46.493Z,7
2018-05-02T02:07:58.907Z,7
2018-05-02T02:08:11.323Z,7
2018-05-02T02:08:23.728Z,7
2018-05-02T02:08:36.131Z,7
2018-05-02T02:08:48.544Z,7
2018-05-02T02:09:00.955Z,7
2018-05-02T02:09:13.417Z,7
2018-05-02T02:09:25.849Z,7.05555555556
2018-05-02T02:09:38.258Z,7
2018-05-02T02:09:50.669Z,7
2018-05-02T02:10:03.104Z,7
2018-05-02T02:10:15.591Z,7
2018-05-02T02:10:28.061Z,7
2018-05-02T02:10:40.460Z,7
2018-05-02T02:10:52.875Z,7
2018-05-02T02:11:05.281Z,7
2018-05-02T02:11:17.694Z,7
2018-05-02T02:11:30.091Z,7
2018-05-02T02:11:42.631Z,7
2018-05-02T02:11:55.054Z,7
2018-05-02T02:12:07.463Z,7
2018-05-02T02:12:19.929Z,7
2018-05-02T02:12:32.330Z,7.05555555556
2018-05-02T02:12:44.747Z,7
2018-05-02T02:12:57.162Z,7
2018-05-02T02:13:09.558Z,7
2018-05-02T02:13:22.008Z,7
2018-05-02T02:13:34.415Z,7
2018-05-02T02:13:46.818Z,7